Time;durP1;ratioP1;P1;durP2;ratioP2;P2;SDS_P1;SDS_P2;PMS_P1;PMS_P2;Temp;Humidity;BMP_temperature;BMP_pressure;BME280_temperature;BME280_humidity;BME280_pressure;Samples;Min_cycle;Max_cycle;Signal;HPM_P1;HPM_P2
2022/10/09 00:00:12;;;;;;;6.67;2.70;;;;;;;10.04;100.00;100634.69;4978422;28;20045;-74
2022/10/09 00:02:38;;;;;;;8.67;2.83;;;;;;;9.96;100.00;100638.16;4994518;28;20033;-74
2022/10/09 00:05:04;;;;;;;5.17;2.47;;;;;;;9.91;100.00;100635.16;4995250;28;20469;-74
2022/10/09 00:07:30;;;;;;;9.00;2.50;;;;;;;9.86;100.00;100632.16;4995331;28;20118;-74
2022/10/09 00:09:55;;;;;;;3.33;2.63;;;;;;;9.91;100.00;100629.84;4995388;28;20120;-74
2022/10/09 00:12:21;;;;;;;4.93;2.30;;;;;;;9.95;100.00;100636.50;4995118;28;20030;-74
2022/10/09 00:14:46;;;;;;;6.87;2.37;;;;;;;9.97;100.00;100633.66;4995173;28;20033;-75
2022/10/09 00:17:12;;;;;;;2.53;2.20;;;;;;;9.98;100.00;100628.19;4994914;28;20514;-74
2022/10/09 00:19:38;;;;;;;6.80;2.47;;;;;;;10.01;100.00;100630.50;4994623;28;20053;-73
2022/10/09 00:22:05;;;;;;;4.37;2.30;;;;;;;10.06;100.00;100638.84;4977905;28;20061;-74
2022/10/09 00:24:31;;;;;;;5.00;2.83;;;;;;;10.06;100.00;100632.69;4995102;28;20038;-74
2022/10/09 00:26:56;;;;;;;4.17;2.20;;;;;;;10.08;100.00;100636.84;4995332;28;20417;-74
2022/10/09 00:29:22;;;;;;;5.07;2.87;;;;;;;10.12;100.00;100643.53;4995752;28;20358;-76
2022/10/09 00:31:49;;;;;;;5.27;2.63;;;;;;;10.10;100.00;100640.19;5011897;28;20026;-74
2022/10/09 00:34:15;;;;;;;4.00;2.40;;;;;;;10.11;100.00;100636.53;5013302;28;20018;-74
2022/10/09 00:36:40;;;;;;;4.27;2.87;;;;;;;10.08;100.00;100631.53;5011894;28;20023;-76
2022/10/09 00:39:06;;;;;;;3.90;2.20;;;;;;;10.06;100.00;100635.34;4988563;28;20104;-73
2022/10/09 00:41:33;;;;;;;6.10;3.00;;;;;;;10.05;100.00;100637.19;4994887;28;20026;-73
2022/10/09 00:44:23;;;;;;;8.63;2.60;;;;;;;10.04;100.00;100646.16;4994682;28;20030;-74
2022/10/09 00:46:51;;;;;;;3.90;2.33;;;;;;;9.78;100.00;100608.16;4994286;28;20454;-74
2022/10/09 00:49:22;;;;;;;8.73;2.57;;;;;;;10.05;100.00;100653.13;4994585;28;20462;-74
2022/10/09 00:51:50;;;;;;;9.23;2.83;;;;;;;10.00;100.00;100643.97;4994598;28;20058;-75
2022/10/09 00:54:20;;;;;;;3.47;2.50;;;;;;;10.09;100.00;100650.97;4977271;28;20026;-75
2022/10/09 00:56:46;;;;;;;6.93;2.23;;;;;;;10.08;100.00;100652.81;5001555;28;20046;-74
2022/10/09 00:59:12;;;;;;;5.03;2.63;;;;;;;10.09;100.00;100648.31;5018224;28;20018;-72
2022/10/09 01:01:40;;;;;;;4.57;2.87;;;;;;;10.02;100.00;100637.50;5018915;28;20034;-72
2022/10/09 01:04:05;;;;;;;10.40;2.83;;;;;;;10.00;100.00;100647.47;5017777;28;20018;-72
2022/10/09 01:06:47;;;;;;;5.07;3.00;;;;;;;9.98;100.00;100646.81;4989653;28;20117;-75
2022/10/09 01:09:22;;;;;;;5.30;2.97;;;;;;;9.93;100.00;100649.13;4995324;28;20057;-75
2022/10/09 01:12:09;;;;;;;6.00;3.27;;;;;;;9.86;100.00;100642.78;4995223;28;20030;-76
2022/10/09 01:14:43;;;;;;;8.17;2.60;;;;;;;9.79;100.00;100641.75;4992961;28;20157;-75
2022/10/09 01:17:40;;;;;;;6.43;2.27;;;;;;;9.65;100.00;100640.53;4994008;28;20030;-74
2022/10/09 01:20:31;;;;;;;6.53;3.00;;;;;;;9.69;100.00;100662.31;4993758;28;20074;-75
2022/10/09 01:23:26;;;;;;;9.33;2.37;;;;;;;9.61;100.00;100663.13;4994177;28;20046;-75
2022/10/09 01:26:10;;;;;;;5.90;2.70;;;;;;;9.52;100.00;100654.25;4963810;28;20038;-74
2022/10/09 01:28:39;;;;;;;9.27;3.03;;;;;;;9.44;100.00;100648.91;4993816;28;20034;-73
2022/10/09 01:31:06;;;;;;;4.17;2.50;;;;;;;9.43;100.00;100665.00;4993937;28;20030;-73
2022/10/09 01:33:32;;;;;;;7.77;2.67;;;;;;;9.39;100.00;100658.34;4993908;28;20604;-74
2022/10/09 01:36:00;;;;;;;9.40;3.30;;;;;;;9.30;100.00;100654.81;4993457;28;20026;-73
2022/10/09 01:38:28;;;;;;;3.97;3.00;;;;;;;9.34;100.00;100664.13;4993392;28;20506;-74
2022/10/09 01:40:54;;;;;;;6.43;3.00;;;;;;;9.29;100.00;100661.13;4993466;28;20043;-75
2022/10/09 01:43:20;;;;;;;7.87;3.17;;;;;;;9.29;100.00;100663.78;4976277;28;20065;-73
2022/10/09 01:45:47;;;;;;;8.93;3.27;;;;;;;9.25;100.00;100660.59;4993797;28;20117;-74
2022/10/09 01:48:22;;;;;;;6.70;3.07;;;;;;;9.25;100.00;100668.56;5000293;28;20038;-74
2022/10/09 01:50:55;;;;;;;5.60;3.10;;;;;;;9.21;100.00;100676.97;5005808;28;20054;-74
2022/10/09 01:53:22;;;;;;;6.97;2.77;;;;;;;9.18;100.00;100674.63;5004681;28;20041;-74
2022/10/09 01:55:48;;;;;;;8.67;2.60;;;;;;;9.17;100.00;100678.28;5004986;28;20053;-74
2022/10/09 01:58:23;;;;;;;7.70;3.17;;;;;;;9.21;100.00;100682.28;5005416;28;20034;-72
2022/10/09 02:00:55;;;;;;;7.97;4.20;;;;;;;9.20;100.00;100688.59;5005126;28;20108;-72
2022/10/09 02:03:24;;;;;;;4.80;2.50;;;;;;;9.15;100.00;100690.91;5005005;28;20027;-74
2022/10/09 02:05:52;;;;;;;4.55;3.38;;;;;;;9.12;100.00;100685.91;5002332;28;20029;-73
2022/10/09 02:08:20;;;;;;;4.63;2.70;;;;;;;9.13;100.00;100698.19;4993699;28;20046;-73
2022/10/09 02:10:50;;;;;;;7.97;3.28;;;;;;;9.14;100.00;100689.22;4993432;28;20034;-73
2022/10/09 02:13:17;;;;;;;6.53;2.70;;;;;;;9.12;100.00;100686.72;4992934;28;20409;-73
2022/10/09 02:15:48;;;;;;;5.03;2.80;;;;;;;9.09;100.00;100679.06;4975719;28;20085;-73
2022/10/09 02:18:21;;;;;;;8.43;3.03;;;;;;;8.98;100.00;100671.38;4975404;28;20104;-73
2022/10/09 02:20:51;;;;;;;8.80;3.20;;;;;;;9.04;100.00;100685.84;4992790;28;20059;-72
2022/10/09 02:23:18;;;;;;;12.27;3.87;;;;;;;8.98;100.00;100676.66;4992870;28;20462;-73
2022/10/09 02:25:44;;;;;;;8.57;2.70;;;;;;;8.96;100.00;100682.16;4992811;28;20038;-73
2022/10/09 02:28:10;;;;;;;9.70;3.83;;;;;;;8.95;100.00;100684.91;4992794;28;20037;-72
2022/10/09 02:30:50;;;;;;;5.33;3.67;;;;;;;8.97;100.00;100693.59;4992609;28;20054;-74
2022/10/09 02:33:16;;;;;;;6.37;2.83;;;;;;;8.94;100.00;100688.56;4992881;28;20557;-75
2022/10/09 02:35:42;;;;;;;5.93;2.67;;;;;;;8.93;100.00;100697.53;4992890;28;20124;-75
2022/10/09 02:38:07;;;;;;;8.27;3.27;;;;;;;8.85;100.00;100695.63;4993031;28;20032;-73
2022/10/09 02:40:33;;;;;;;6.93;3.13;;;;;;;8.89;100.00;100704.97;4992672;28;20030;-75
2022/10/09 02:42:58;;;;;;;3.57;3.10;;;;;;;8.87;100.00;100698.16;4992631;28;20033;-76
2022/10/09 02:45:23;;;;;;;7.80;3.13;;;;;;;8.87;100.00;100700.78;4992669;28;20124;-74
2022/10/09 02:47:49;;;;;;;7.60;2.20;;;;;;;8.91;100.00;100703.00;4975478;28;20026;-73
2022/10/09 02:50:15;;;;;;;5.57;3.07;;;;;;;9.07;100.00;100712.09;4992552;28;20038;-73
2022/10/09 02:52:40;;;;;;;5.87;2.67;;;;;;;9.19;100.00;100708.19;4992738;28;20563;-73
2022/10/09 02:55:06;;;;;;;8.70;3.93;;;;;;;9.31;100.00;100707.81;4992570;28;20026;-75
2022/10/09 02:57:31;;;;;;;8.97;4.03;;;;;;;9.31;100.00;100702.50;4992728;28;20034;-74
2022/10/09 02:59:57;;;;;;;6.53;2.70;;;;;;;9.42;100.00;100712.00;4992478;28;20034;-73
2022/10/09 03:02:22;;;;;;;10.17;4.20;;;;;;;9.56;100.00;100721.25;4992532;28;20355;-74
2022/10/09 03:04:48;;;;;;;9.90;3.70;;;;;;;9.59;100.00;100721.78;4992784;28;20508;-74
2022/10/09 03:07:13;;;;;;;5.17;2.77;;;;;;;9.67;100.00;100728.13;4992438;28;20474;-74
2022/10/09 03:09:39;;;;;;;5.57;2.83;;;;;;;9.67;100.00;100731.63;4992504;28;20034;-74
2022/10/09 03:12:04;;;;;;;9.23;3.90;;;;;;;9.72;100.00;100736.47;4992400;28;20034;-74
2022/10/09 03:14:30;;;;;;;6.07;2.60;;;;;;;9.71;100.00;100732.97;4992464;28;20022;-74
2022/10/09 03:16:56;;;;;;;6.37;2.83;;;;;;;9.72;100.00;100741.78;4959289;28;20034;-74
2022/10/09 03:19:21;;;;;;;6.43;2.80;;;;;;;9.66;100.00;100737.09;4992413;28;20085;-75
2022/10/09 03:21:47;;;;;;;10.30;3.00;;;;;;;9.59;100.00;100739.56;4974327;28;20046;-75
2022/10/09 03:24:13;;;;;;;9.10;2.70;;;;;;;9.52;100.00;100736.66;4973279;28;20034;-75
2022/10/09 03:26:38;;;;;;;7.43;3.13;;;;;;;9.47;100.00;100736.31;4972829;28;20035;-74
2022/10/09 03:29:04;;;;;;;7.30;3.13;;;;;;;9.47;100.00;100732.81;4972926;28;20034;-74
2022/10/09 03:31:29;;;;;;;7.83;3.40;;;;;;;9.51;100.00;100735.00;4973148;28;20023;-74
2022/10/09 03:33:55;;;;;;;5.03;2.63;;;;;;;9.52;100.00;100739.31;4973013;28;20061;-74
2022/10/09 03:36:21;;;;;;;6.40;2.40;;;;;;;9.54;100.00;100742.69;4972710;28;20031;-74
2022/10/09 03:38:46;;;;;;;8.77;3.17;;;;;;;9.50;100.00;100732.50;4974766;28;20370;-76
2022/10/09 03:41:12;;;;;;;3.20;2.87;;;;;;;9.55;100.00;100741.69;4976383;28;20080;-75
2022/10/09 03:43:37;;;;;;;8.30;2.70;;;;;;;9.63;100.00;100738.25;4976228;28;20459;-75
2022/10/09 03:46:07;;;;;;;5.57;2.93;;;;;;;9.72;100.00;100747.09;4976510;28;20030;-76
2022/10/09 03:48:34;;;;;;;5.90;3.20;;;;;;;9.70;100.00;100749.06;4976444;28;20030;-75
2022/10/09 03:50:59;;;;;;;9.17;2.60;;;;;;;9.68;100.00;100751.91;4976237;28;20027;-75
2022/10/09 03:53:25;;;;;;;6.57;3.53;;;;;;;9.74;100.00;100755.75;4975977;28;20030;-74
2022/10/09 03:55:50;;;;;;;5.83;2.70;;;;;;;9.77;100.00;100755.44;4976098;28;20030;-75
2022/10/09 03:58:16;;;;;;;6.43;3.23;;;;;;;9.72;100.00;100752.41;4975599;28;20041;-75
2022/10/09 04:00:44;;;;;;;7.90;3.83;;;;;;;9.78;100.00;100757.94;4975937;28;20078;-75
2022/10/09 04:03:09;;;;;;;6.50;3.28;;;;;;;9.82;100.00;100769.91;4975847;28;20037;-75
2022/10/09 04:05:35;;;;;;;4.83;2.70;;;;;;;9.84;100.00;100767.13;4976193;28;20030;-75
2022/10/09 04:08:01;;;;;;;7.63;3.10;;;;;;;9.84;100.00;100775.13;4975399;28;20386;-76
2022/10/09 04:10:28;;;;;;;7.43;3.37;;;;;;;9.84;100.00;100777.78;4975742;28;20038;-75
2022/10/09 04:12:53;;;;;;;5.40;3.97;;;;;;;9.83;100.00;100774.28;4975593;28;20034;-76
2022/10/09 04:15:19;;;;;;;6.40;3.60;;;;;;;9.87;100.00;100775.63;4975948;28;20039;-75
2022/10/09 04:17:44;;;;;;;7.03;3.87;;;;;;;9.85;100.00;100780.28;4975699;28;20031;-74
2022/10/09 04:20:10;;;;;;;6.63;3.57;;;;;;;9.76;100.00;100778.53;4975536;28;20529;-74
2022/10/09 04:22:36;;;;;;;11.80;3.87;;;;;;;9.68;100.00;100777.66;4976487;28;20035;-76
2022/10/09 04:25:01;;;;;;;8.07;3.83;;;;;;;9.72;100.00;100787.00;4992042;28;20023;-77
2022/10/09 04:27:29;;;;;;;6.93;3.50;;;;;;;9.74;100.00;100780.53;4997540;28;20034;-75
2022/10/09 04:29:55;;;;;;;9.27;3.70;;;;;;;9.78;100.00;100773.06;4966923;28;20035;-74
2022/10/09 04:32:20;;;;;;;10.67;3.80;;;;;;;9.74;100.00;100771.69;4999927;28;20058;-74
2022/10/09 04:34:46;;;;;;;7.93;4.13;;;;;;;9.75;100.00;100776.03;4987723;28;20042;-73
2022/10/09 04:37:11;;;;;;;12.60;4.00;;;;;;;9.78;100.00;100778.38;4976603;28;20026;-76
2022/10/09 04:39:37;;;;;;;7.77;3.93;;;;;;;9.81;100.00;100780.72;4975480;28;20125;-74
2022/10/09 04:42:02;;;;;;;10.37;3.87;;;;;;;9.78;100.00;100771.22;4975343;28;20066;-73
2022/10/09 04:44:28;;;;;;;9.20;3.67;;;;;;;9.59;100.00;100748.38;4975619;28;20093;-75
2022/10/09 04:46:53;;;;;;;12.80;4.03;;;;;;;9.81;100.00;100786.88;4975432;28;20054;-75
2022/10/09 04:49:19;;;;;;;7.37;3.17;;;;;;;9.84;100.00;100785.75;4974890;28;20423;-75
2022/10/09 04:51:45;;;;;;;9.67;3.43;;;;;;;9.81;100.00;100786.03;4974978;28;20034;-76
2022/10/09 04:54:11;;;;;;;12.90;3.87;;;;;;;9.83;100.00;100790.25;4957733;28;20034;-75
2022/10/09 04:56:37;;;;;;;9.17;4.60;;;;;;;9.90;100.00;100801.06;4957487;28;20089;-73
2022/10/09 04:59:03;;;;;;;8.27;3.83;;;;;;;9.87;100.00;100793.41;4974279;28;20046;-74
2022/10/09 05:01:28;;;;;;;7.33;3.93;;;;;;;9.88;100.00;100800.41;4974724;28;20030;-74
2022/10/09 05:03:54;;;;;;;8.20;3.53;;;;;;;9.91;100.00;100797.44;4974527;28;20038;-76
2022/10/09 05:06:21;;;;;;;8.50;3.93;;;;;;;9.87;100.00;100794.25;4967936;28;20031;-74
2022/10/09 05:08:48;;;;;;;7.10;3.50;;;;;;;9.99;100.00;100808.09;4961856;28;20359;-74
2022/10/09 05:11:22;;;;;;;8.60;3.63;;;;;;;9.90;100.00;100807.22;4965799;28;20034;-73
2022/10/09 05:13:50;;;;;;;8.43;4.00;;;;;;;9.99;100.00;100824.06;4969045;28;20046;-74
2022/10/09 05:16:20;;;;;;;7.53;3.55;;;;;;;10.00;100.00;100817.75;4968086;28;20027;-76
2022/10/09 05:18:56;;;;;;;7.60;3.20;;;;;;;10.00;100.00;100815.09;4965571;28;20034;-77
2022/10/09 05:21:22;;;;;;;8.37;4.57;;;;;;;10.03;100.00;100822.75;4960007;28;20042;-75
2022/10/09 05:23:48;;;;;;;9.67;3.97;;;;;;;9.99;100.00;100829.38;4981814;28;20046;-74
2022/10/09 05:26:17;;;;;;;7.07;3.63;;;;;;;10.00;100.00;100828.41;4964630;28;20463;-75
2022/10/09 05:28:42;;;;;;;10.10;3.72;;;;;;;10.01;100.00;100826.56;4992323;28;20132;-79
2022/10/09 05:31:13;;;;;;;5.70;3.20;;;;;;;10.01;100.00;100832.72;4994866;28;20130;-76
2022/10/09 05:33:48;;;;;;;8.73;3.27;;;;;;;9.98;100.00;100825.06;4982365;28;20027;-75
2022/10/09 05:41:06;;;;;;;7.87;3.00;;;;;;;9.89;100.00;100802.91;4981880;28;20066;-77
2022/10/09 05:43:38;;;;;;;18.50;4.38;;;;;;;9.93;100.00;100812.22;4939507;28;20030;-77
2022/10/09 05:46:24;;;;;;;7.73;3.10;;;;;;;10.15;100.00;100824.19;4969177;28;20402;-79
2022/10/09 05:52:34;;;;;;;8.47;2.90;;;;;;;10.26;100.00;100819.59;4987667;28;20034;-81
2022/10/09 05:55:00;;;;;;;14.20;3.77;;;;;;;10.41;100.00;100865.94;4963353;28;20022;-78
2022/10/09 05:57:25;;;;;;;4.23;3.30;;;;;;;10.27;100.00;100842.56;4964694;28;20174;-76
2022/10/09 05:59:54;;;;;;;8.60;3.50;;;;;;;10.37;100.00;100853.91;4988062;28;20499;-74
2022/10/09 06:02:28;;;;;;;11.60;4.55;;;;;;;10.41;100.00;100857.94;4950273;28;20037;-77
2022/10/09 06:04:57;;;;;;;7.70;4.73;;;;;;;10.51;100.00;100882.63;4952031;28;20462;-75
2022/10/09 06:11:33;;;;;;;6.67;3.00;;;;;;;10.59;100.00;100885.31;4959100;28;20034;-84
2022/10/09 06:23:21;;;;;;;9.20;3.33;;;;;;;10.43;100.00;100887.91;5003113;23;20058;-74
2022/10/09 06:25:54;;;;;;;9.60;2.90;;;;;;;10.40;100.00;100901.50;4977803;28;20057;-79
2022/10/09 06:28:20;;;;;;;12.40;4.63;;;;;;;10.38;100.00;100883.03;4964464;28;20034;-80
2022/10/09 06:30:46;;;;;;;11.50;4.53;;;;;;;10.44;100.00;100893.06;4956855;28;20372;-80
2022/10/09 06:33:12;;;;;;;6.23;3.37;;;;;;;10.44;100.00;100897.56;4974594;28;20019;-81
2022/10/09 06:35:38;;;;;;;9.50;4.13;;;;;;;10.41;100.00;100876.59;4975315;28;20027;-80
2022/10/09 06:38:03;;;;;;;8.47;3.47;;;;;;;10.70;100.00;100898.34;4974663;28;20030;-82
2022/10/09 06:40:29;;;;;;;9.67;3.53;;;;;;;10.60;99.50;100867.50;4988480;28;20046;-80
2022/10/09 06:42:54;;;;;;;7.37;3.03;;;;;;;10.59;99.60;100863.16;4997969;28;20022;-80
2022/10/09 06:45:20;;;;;;;6.20;2.80;;;;;;;10.89;98.79;100907.06;4997975;28;20030;-80
2022/10/09 06:47:45;;;;;;;7.37;3.30;;;;;;;10.90;98.81;100900.75;4965369;28;20019;-81
2022/10/09 06:50:11;;;;;;;10.67;3.23;;;;;;;10.91;98.75;100907.75;4992914;28;20064;-77
2022/10/09 06:52:37;;;;;;;8.77;4.20;;;;;;;10.90;98.95;100916.72;4983065;28;20031;-80
2022/10/09 06:55:02;;;;;;;13.10;4.67;;;;;;;10.86;99.00;100919.72;4983976;28;20026;-79
2022/10/09 06:57:29;;;;;;;8.30;2.87;;;;;;;10.91;98.86;100921.06;4976378;28;20549;-79
2022/10/09 06:59:54;;;;;;;12.07;5.40;;;;;;;10.86;98.93;100901.06;4973474;28;20122;-78
2022/10/09 07:02:20;;;;;;;9.03;3.57;;;;;;;10.74;98.62;100899.72;4973766;28;20026;-80
2022/10/09 07:04:46;;;;;;;11.40;3.63;;;;;;;10.93;98.48;100927.91;4957164;28;20374;-77
2022/10/09 07:07:11;;;;;;;8.40;3.27;;;;;;;10.83;98.97;100925.38;4957642;28;20466;-76
2022/10/09 07:09:37;;;;;;;5.43;2.80;;;;;;;10.94;99.18;100942.06;4974108;28;20026;-82
2022/10/09 07:12:02;;;;;;;4.70;3.03;;;;;;;11.05;99.35;100939.97;4974889;28;20042;-82
2022/10/09 07:14:28;;;;;;;8.23;4.23;;;;;;;11.10;98.65;100942.13;4977438;28;20031;-78
2022/10/09 07:16:54;;;;;;;6.27;3.23;;;;;;;11.15;97.95;100942.47;4977030;28;20031;-77
2022/10/09 07:19:20;;;;;;;5.37;3.10;;;;;;;11.12;97.33;100946.31;4978027;28;20069;-77
2022/10/09 07:21:51;;;;;;;12.27;3.43;;;;;;;11.21;97.71;100946.31;4959645;28;20101;-76
2022/10/09 07:24:23;;;;;;;7.43;3.10;;;;;;;11.25;97.40;100945.81;4976789;28;20077;-80
2022/10/09 07:26:49;;;;;;;6.13;3.20;;;;;;;11.29;96.96;100955.19;4976423;28;20074;-78
2022/10/09 07:29:16;;;;;;;11.40;3.87;;;;;;;11.31;96.76;100955.88;4976952;28;20074;-78
2022/10/09 07:31:43;;;;;;;11.87;3.37;;;;;;;11.30;96.67;100954.19;4976532;28;20474;-78
2022/10/09 07:34:09;;;;;;;10.03;3.17;;;;;;;11.46;97.13;100959.56;4960308;28;20050;-78
2022/10/09 07:36:35;;;;;;;5.47;2.60;;;;;;;11.59;95.68;100953.75;4976644;28;20112;-75
2022/10/09 07:39:01;;;;;;;6.13;3.10;;;;;;;11.68;94.97;100962.59;4975559;28;20034;-77
2022/10/09 07:41:28;;;;;;;6.67;2.80;;;;;;;11.71;94.69;100968.44;4976119;28;20034;-75
2022/10/09 07:43:54;;;;;;;6.20;3.17;;;;;;;11.63;94.98;100954.25;4975110;28;20134;-77
2022/10/09 07:46:21;;;;;;;5.93;2.93;;;;;;;11.77;93.99;100972.28;4976214;28;20470;-75
2022/10/09 07:48:48;;;;;;;9.97;3.07;;;;;;;11.86;94.30;100971.34;4975535;28;20031;-79
2022/10/09 07:51:24;;;;;;;7.43;4.07;;;;;;;12.03;93.74;100967.66;4958208;28;20122;-76
2022/10/09 07:53:50;;;;;;;7.37;4.13;;;;;;;12.13;92.95;100962.13;4975624;28;20022;-75
2022/10/09 07:56:19;;;;;;;11.17;3.00;;;;;;;12.05;91.99;100962.97;4975434;28;20435;-76
2022/10/09 07:58:48;;;;;;;4.60;2.85;;;;;;;12.04;91.56;100971.16;4975755;28;20035;-76
2022/10/09 08:01:14;;;;;;;9.50;3.83;;;;;;;12.05;92.51;100968.31;4975629;28;20387;-77
2022/10/09 08:03:40;;;;;;;6.50;2.73;;;;;;;12.05;92.59;100979.00;4976002;28;20038;-77
2022/10/09 08:06:06;;;;;;;11.33;2.60;;;;;;;12.04;92.83;100979.16;4958616;28;20129;-76
2022/10/09 08:08:32;;;;;;;8.13;2.70;;;;;;;11.92;91.84;100981.34;4975705;28;20035;-76
2022/10/09 08:10:58;;;;;;;6.50;3.10;;;;;;;11.90;93.06;100990.53;4975557;28;20557;-75
2022/10/09 08:13:23;;;;;;;4.60;2.57;;;;;;;11.93;91.99;100983.00;4975738;28;20035;-75
2022/10/09 08:15:50;;;;;;;7.73;3.33;;;;;;;11.85;92.01;100998.16;4975749;28;20093;-73
2022/10/09 08:18:15;;;;;;;5.87;2.60;;;;;;;11.72;92.11;100994.13;4975048;28;20022;-72
2022/10/09 08:20:41;;;;;;;6.33;2.87;;;;;;;11.64;92.46;100994.13;4975285;28;20057;-71
2022/10/09 08:23:08;;;;;;;7.87;3.50;;;;;;;11.65;92.58;100997.63;4975022;28;20138;-71
2022/10/09 08:25:35;;;;;;;6.20;3.00;;;;;;;11.45;93.16;100995.22;4975236;28;20102;-72
2022/10/09 08:28:02;;;;;;;5.13;2.80;;;;;;;11.59;93.59;101009.78;4975449;28;20034;-74
2022/10/09 08:30:27;;;;;;;6.47;2.73;;;;;;;11.53;92.96;101009.56;4959937;28;20443;-71
2022/10/09 08:32:53;;;;;;;4.73;2.63;;;;;;;11.53;92.65;101012.25;4956021;29;20037;-74
2022/10/09 08:35:18;;;;;;;7.97;2.23;;;;;;;11.44;92.70;100998.88;4955722;29;20031;-74
2022/10/09 08:37:44;;;;;;;6.00;2.90;;;;;;;11.46;92.49;101009.41;4955913;29;20041;-70
2022/10/09 08:40:21;;;;;;;5.23;2.57;;;;;;;11.33;93.33;101019.69;4955905;29;20035;-73
2022/10/09 08:42:58;;;;;;;5.47;2.50;;;;;;;11.15;93.47;101006.44;4956993;29;20078;-73
2022/10/09 08:45:23;;;;;;;7.30;2.40;;;;;;;11.18;93.87;101019.47;4955723;29;20344;-74
2022/10/09 08:47:57;;;;;;;4.73;1.90;;;;;;;11.30;93.06;101023.53;4974729;28;20588;-75
2022/10/09 08:50:32;;;;;;;3.23;1.97;;;;;;;11.46;93.26;101034.22;4975340;28;20069;-72
2022/10/09 08:53:43;;;;;;;6.47;2.47;;;;;;;11.57;92.34;101041.13;4975972;28;20035;-74
2022/10/09 08:56:13;;;;;;;5.63;2.47;;;;;;;11.44;91.75;101036.22;4955096;28;20474;-74
2022/10/09 08:58:43;;;;;;;6.07;2.17;;;;;;;11.44;92.65;101046.06;4976765;28;20038;-74
2022/10/09 09:01:22;;;;;;;5.97;2.00;;;;;;;11.35;92.78;101041.69;4963787;28;20427;-81
2022/10/09 09:04:07;;;;;;;12.33;2.30;;;;;;;11.25;92.72;101041.81;4994765;28;20019;-78
2022/10/09 09:06:32;;;;;;;10.03;4.03;;;;;;;11.20;93.04;101046.78;4999550;28;20019;-77
2022/10/09 09:09:27;;;;;;;5.80;3.10;;;;;;;11.19;92.90;101047.78;4999543;28;20046;-77
2022/10/09 09:11:55;;;;;;;5.90;2.20;;;;;;;11.23;92.29;101046.47;4997682;28;20038;-78
2022/10/09 09:14:30;;;;;;;2.60;1.50;;;;;;;11.28;92.23;101049.50;4999188;28;20027;-77
2022/10/09 09:17:18;;;;;;;9.83;1.87;;;;;;;11.31;90.58;101045.69;4999188;28;20030;-77
2022/10/09 09:20:08;;;;;;;5.13;2.47;;;;;;;11.32;90.25;101058.84;4998856;28;20053;-79
2022/10/09 09:22:41;;;;;;;3.33;2.10;;;;;;;11.21;89.09;101059.13;4982192;28;20325;-78
2022/10/09 09:25:23;;;;;;;3.63;1.80;;;;;;;11.21;88.61;101056.47;4958622;28;20062;-77
2022/10/09 09:27:52;;;;;;;3.60;1.80;;;;;;;11.23;89.35;101059.78;4957640;28;20113;-79
2022/10/09 09:30:30;;;;;;;4.73;1.80;;;;;;;11.28;88.75;101062.84;4975383;28;20492;-81
2022/10/09 09:33:08;;;;;;;4.13;1.58;;;;;;;11.25;88.33;101065.81;4975760;28;20041;-76
2022/10/09 09:36:00;;;;;;;4.23;1.60;;;;;;;11.18;87.75;101062.09;4957041;28;20446;-79
2022/10/09 09:38:27;;;;;;;4.30;1.63;;;;;;;11.20;87.38;101069.94;4975065;28;20027;-86
2022/10/09 09:40:58;;;;;;;4.60;1.70;;;;;;;11.17;87.32;101066.59;4942112;28;20379;-84
2022/10/09 09:43:25;;;;;;;3.03;1.43;;;;;;;11.16;85.97;101061.44;4974410;28;20378;-79
2022/10/09 09:45:59;;;;;;;3.27;2.33;;;;;;;11.18;83.54;101075.44;4975409;28;20030;-81
2022/10/09 09:48:35;;;;;;;3.93;1.70;;;;;;;11.17;82.83;101087.09;4974182;28;20038;-79
2022/10/09 09:51:11;;;;;;;2.97;1.53;;;;;;;11.05;81.37;101077.72;4974868;28;20449;-80
2022/10/09 09:53:59;;;;;;;5.47;1.47;;;;;;;10.99;81.24;101073.03;4974790;28;20105;-73
2022/10/09 09:56:41;;;;;;;5.53;1.42;;;;;;;11.11;81.60;101085.06;4956444;28;20386;-77
2022/10/09 09:59:31;;;;;;;2.10;1.20;;;;;;;11.06;81.72;101084.72;4973953;28;20046;-78
2022/10/09 10:02:20;;;;;;;2.67;1.53;;;;;;;10.97;81.62;101074.97;4973266;28;20360;-77
2022/10/09 10:05:00;;;;;;;6.07;1.67;;;;;;;11.01;81.59;101105.69;4956626;28;20046;-80
2022/10/09 10:07:37;;;;;;;3.77;1.70;;;;;;;10.91;81.99;101088.94;4974238;28;20064;-78
2022/10/09 10:10:09;;;;;;;2.67;1.63;;;;;;;11.05;82.12;101104.38;4974126;28;20069;-77
2022/10/09 10:13:13;;;;;;;2.60;1.43;;;;;;;11.08;82.32;101106.72;4974255;28;20467;-79
2022/10/09 10:15:51;;;;;;;3.77;1.80;;;;;;;11.07;81.91;101115.69;4918177;28;20034;-73
2022/10/09 10:18:20;;;;;;;4.30;2.50;;;;;;;10.99;82.34;101118.31;4956926;28;20460;-77
2022/10/09 10:20:48;;;;;;;4.07;1.77;;;;;;;11.02;82.48;101120.66;4973557;28;20368;-73
2022/10/09 10:23:33;;;;;;;3.33;1.63;;;;;;;11.07;81.83;101121.03;4971928;28;20039;-79
2022/10/09 10:26:03;;;;;;;4.67;1.30;;;;;;;11.05;81.23;101125.69;4957289;28;20035;-78
2022/10/09 10:28:56;;;;;;;3.60;1.37;;;;;;;10.95;80.23;101130.25;4973170;28;20030;-76
2022/10/09 10:32:00;;;;;;;2.93;1.50;;;;;;;10.83;79.92;101121.69;4956102;28;20027;-76
2022/10/09 10:34:31;;;;;;;2.73;1.50;;;;;;;10.80;80.37;101120.19;4973164;28;20050;-77
2022/10/09 10:37:23;;;;;;;4.77;1.60;;;;;;;11.00;80.36;101133.31;4973915;28;20367;-77
2022/10/09 10:39:56;;;;;;;3.13;1.20;;;;;;;11.05;80.61;101136.34;4969496;28;20050;-74
2022/10/09 10:42:32;;;;;;;1.80;1.50;;;;;;;11.01;80.12;101141.16;4973631;28;20030;-80
2022/10/09 10:45:18;;;;;;;1.10;1.00;;;;;;;11.00;80.35;101144.81;4956058;28;20039;-75
2022/10/09 10:48:08;;;;;;;2.33;1.20;;;;;;;10.97;80.17;101142.44;4944771;28;20035;-77
2022/10/09 10:50:41;;;;;;;4.47;1.60;;;;;;;10.79;80.77;101118.50;4959732;28;20478;-75
2022/10/09 10:53:39;;;;;;;2.53;1.47;;;;;;;10.98;80.57;101144.09;4977605;28;20041;-79
2022/10/09 10:56:34;;;;;;;3.67;2.57;;;;;;;10.87;79.53;101144.38;4960431;28;20493;-72
2022/10/09 10:59:55;;;;;;;2.20;1.20;;;;;;;10.87;80.04;101155.03;4976640;28;20042;-76
2022/10/09 11:03:05;;;;;;;6.33;1.60;;;;;;;10.85;79.84;101163.19;4958304;28;20039;-80
2022/10/09 11:05:36;;;;;;;2.77;1.93;;;;;;;10.89;80.50;101168.19;4943607;28;20065;-76
2022/10/09 11:08:20;;;;;;;;;;;;;;;10.95;80.33;101171.06;4960950;28;20037;-77
2022/10/09 11:10:54;;;;;;;2.00;1.53;;;;;;;10.96;79.97;101170.06;4977648;28;19910;-76
2022/10/09 11:13:57;;;;;;;2.87;1.50;;;;;;;10.94;79.61;101171.22;4977001;28;20037;-80
2022/10/09 11:17:05;;;;;;;2.23;1.50;;;;;;;10.93;79.70;101177.56;4959164;28;20082;-76
2022/10/09 11:20:17;;;;;;;1.40;1.30;;;;;;;10.89;79.97;101176.19;4962346;28;20126;-70
2022/10/09 11:27:25;;;;;;;2.20;1.80;;;;;;;10.85;79.88;101184.50;4956307;29;20117;-78
2022/10/09 11:30:01;;;;;;;3.07;1.43;;;;;;;10.77;78.90;101160.47;4938645;29;20050;-74
2022/10/09 11:32:38;;;;;;;6.80;1.73;;;;;;;10.76;79.44;101155.28;4923567;29;20039;-78
2022/10/09 11:35:17;;;;;;;3.07;1.23;;;;;;;10.90;78.25;101191.19;4923268;29;20062;-74
2022/10/09 11:37:52;;;;;;;6.17;1.43;;;;;;;10.89;78.77;101181.53;4939554;29;20427;-73
2022/10/09 11:40:23;;;;;;;4.13;1.20;;;;;;;10.95;78.49;101188.88;4939503;29;20031;-72
2022/10/09 11:43:16;;;;;;;5.33;1.40;;;;;;;10.98;78.82;101200.06;4957104;29;20019;-72
2022/10/09 11:45:51;;;;;;;3.17;1.70;;;;;;;10.91;78.82;101195.53;4939162;29;20090;-69
2022/10/09 11:48:25;;;;;;;3.43;1.53;;;;;;;10.76;78.61;101206.75;4956574;29;20420;-71
2022/10/09 11:51:18;;;;;;;2.17;1.10;;;;;;;10.67;79.28;101185.50;4956345;29;20027;-79
2022/10/09 11:53:45;;;;;;;2.23;1.63;;;;;;;10.75;79.07;101198.91;4923508;29;20034;-77
2022/10/09 11:56:23;;;;;;;2.97;1.40;;;;;;;10.68;78.80;101198.66;4938979;29;20086;-75
2022/10/09 11:58:57;;;;;;;3.55;1.10;;;;;;;10.60;79.60;101214.56;4955792;28;20027;-72
2022/10/09 12:01:28;;;;;;;2.73;1.30;;;;;;;10.49;79.81;101196.16;4956444;29;20039;-75
2022/10/09 12:04:05;;;;;;;4.00;1.33;;;;;;;10.62;79.49;101219.75;4956469;29;20066;-75
2022/10/09 12:06:43;;;;;;;5.30;1.13;;;;;;;10.50;79.41;101196.00;4956230;29;20411;-73
2022/10/09 12:09:23;;;;;;;3.08;1.10;;;;;;;10.67;79.56;101222.78;4938932;29;20031;-77